Time;durP1;ratioP1;P1;durP2;ratioP2;P2;SDS_P1;SDS_P2;PMS_P1;PMS_P2;Temp;Humidity;BMP_temperature;BMP_pressure;BME280_temperature;BME280_humidity;BME280_pressure;Samples;Min_cycle;Max_cycle;Signal;HPM_P1;HPM_P2
2022/11/25 00:02:20;;;;;;;;;;;;;;;13.36;42.78;98273.97;4995222;28;19928;-78
2022/11/25 00:04:46;;;;;;;;;;;;;;;13.34;42.56;98283.78;5012615;28;19918;-77
2022/11/25 00:07:11;;;;;;;;;;;;;;;13.30;42.18;98278.00;5011697;28;19921;-78
2022/11/25 00:09:36;;;;;;;;;;;;;;;13.26;42.48;98268.75;5012476;28;19917;-78
2022/11/25 00:12:01;;;;;;;;;;;;;;;13.23;42.14;98289.19;4994484;28;19960;-78
2022/11/25 00:14:27;;;;;;;;;;;;;;;13.18;42.32;98277.34;5011457;28;19924;-78
2022/11/25 00:16:52;;;;;;;;;;;;;;;13.18;41.95;98276.53;5012533;28;19967;-78
2022/11/25 00:19:17;;;;;;;;;;;;;;;13.16;41.78;98286.34;5011873;28;19917;-78
2022/11/25 00:21:43;;;;;;;;;;;;;;;13.14;42.05;98299.59;4994829;28;19917;-77
2022/11/25 00:24:08;;;;;;;;;;;;;;;13.12;42.08;98298.06;5010793;28;19928;-77
2022/11/25 00:26:34;;;;;;;;;;;;;;;13.11;41.69;98291.16;5011498;28;19918;-77
2022/11/25 00:29:00;;;;;;;;;;;;;;;13.10;41.92;98284.28;5011381;28;19975;-78
2022/11/25 00:31:26;;;;;;;;;;;;;;;13.09;41.53;98274.78;5011467;28;19917;-78
2022/11/25 00:33:51;;;;;;;;;;;;;;;13.08;41.78;98288.84;5011393;28;19925;-78
2022/11/25 00:36:26;;;;;;;;;;;;;;;13.06;41.64;98288.97;5010891;28;19917;-78
2022/11/25 00:38:53;;;;;;;;;;;;;;;13.06;41.71;98294.22;4993966;28;19925;-79
2022/11/25 00:46:46;;;;;;;;;;;;;;;13.07;41.41;98300.31;5012561;28;19929;-78
2022/11/25 00:49:11;;;;;;;;;;;;;;;13.06;41.38;98299.44;5019648;28;19924;-78
2022/11/25 00:51:36;;;;;;;;;;;;;;;13.07;41.24;98298.50;5013888;28;19924;-79
2022/11/25 00:54:02;;;;;;;;;;;;;;;13.08;41.33;98301.94;5014410;28;20020;-77
2022/11/25 00:56:29;;;;;;;;;;;;;;;13.08;41.09;98307.16;5030915;28;20008;-78
2022/11/25 00:58:54;;;;;;;;;;;;;;;13.08;41.05;98305.41;5030848;28;19918;-78
2022/11/25 01:01:19;;;;;;;;;;;;;;;13.07;41.31;98303.75;5030820;28;20360;-78
2022/11/25 01:03:47;;;;;;;;;;;;;;;13.08;40.92;98301.94;5030760;28;20392;-78
2022/11/25 01:06:12;;;;;;;;;;;;;;;13.07;41.06;98305.53;5031017;28;19917;-78
2022/11/25 01:08:38;;;;;;;;;;;;;;;13.07;40.92;98303.75;5032153;28;19975;-80
2022/11/25 01:11:10;;;;;;;;;;;;;;;13.08;41.04;98305.41;5013962;28;19925;-79
2022/11/25 01:13:35;;;;;;;;;;;;;;;13.09;40.88;98307.03;5014272;28;19924;-79
2022/11/25 01:16:01;;;;;;;;;;;;;;;13.09;40.56;98307.03;5031648;28;19917;-78
2022/11/25 01:18:27;;;;;;;;;;;;;;;13.11;40.86;98314.75;5031759;28;19979;-80
2022/11/25 01:20:52;;;;;;;;;;;;;;;13.11;40.78;98328.69;5031617;28;19966;-77
2022/11/25 01:23:17;;;;;;;;;;;;;;;13.12;40.70;98319.03;5013914;28;19952;-78
2022/11/25 01:25:43;;;;;;;;;;;;;;;13.11;40.64;98318.22;5013604;28;19928;-78
2022/11/25 01:28:08;;;;;;;;;;;;;;;13.12;40.66;98322.47;5030897;28;19917;-78
2022/11/25 01:30:33;;;;;;;;;;;;;;;13.12;40.61;98319.84;5034051;28;20343;-78
2022/11/25 01:32:59;;;;;;;;;;;;;;;13.13;40.38;98323.31;5017557;28;19921;-78
2022/11/25 01:35:24;;;;;;;;;;;;;;;13.14;40.45;98324.94;5035447;28;19924;-78
2022/11/25 01:37:49;;;;;;;;;;;;;;;13.14;40.42;98320.56;5035183;28;19984;-78
2022/11/25 01:40:14;;;;;;;;;;;;;;;13.15;40.36;98324.00;5004548;28;20499;-78
2022/11/25 01:42:46;;;;;;;;;;;;;;;13.15;40.53;98322.19;5014232;28;20016;-78
2022/11/25 01:45:17;;;;;;;;;;;;;;;13.15;40.46;98318.75;5014133;28;19940;-78
2022/11/25 01:47:43;;;;;;;;;;;;;;;13.15;40.46;98316.13;4998267;28;19917;-78
2022/11/25 01:50:08;;;;;;;;;;;;;;;13.15;40.41;98313.50;4997633;28;20446;-78
2022/11/25 01:52:38;;;;;;;;;;;;;;;13.13;40.47;98316.28;4997585;28;19917;-78
2022/11/25 01:55:03;;;;;;;;;;;;;;;13.12;40.36;98308.56;5013932;28;19917;-78
2022/11/25 01:57:39;;;;;;;;;;;;;;;13.11;40.33;98306.88;4997181;28;20399;-79
2022/11/25 02:00:06;;;;;;;;;;;;;;;13.11;40.26;98304.28;4997252;28;19918;-79
2022/11/25 02:02:32;;;;;;;;;;;;;;;13.09;39.88;98306.22;5013832;28;19964;-79
2022/11/25 02:04:57;;;;;;;;;;;;;;;13.09;39.88;98316.69;5013652;28;19917;-79
2022/11/25 02:07:33;;;;;;;;;;;;;;;13.07;39.52;98302.91;5013822;28;19987;-79
2022/11/25 02:09:59;;;;;;;;;;;;;;;13.05;39.28;98312.72;4997013;28;19924;-79
2022/11/25 02:12:24;;;;;;;;;;;;;;;13.05;39.80;98318.78;4997076;28;19922;-78
2022/11/25 02:14:50;;;;;;;;;;;;;;;13.05;39.80;98317.97;5013908;28;20336;-78
2022/11/25 02:17:15;;;;;;;;;;;;;;;13.02;39.70;98319.88;5013372;28;19922;-79
2022/11/25 02:19:55;;;;;;;;;;;;;;;13.01;39.75;98317.41;4997220;28;20072;-78
2022/11/25 02:22:23;;;;;;;;;;;;;;;13.00;39.64;98310.53;4997129;28;19917;-78
2022/11/25 02:24:50;;;;;;;;;;;;;;;12.98;39.77;98312.44;5013548;28;19917;-79
2022/11/25 02:27:15;;;;;;;;;;;;;;;12.98;39.77;98315.06;5013476;28;19917;-79
2022/11/25 02:29:41;;;;;;;;;;;;;;;12.98;39.83;98309.84;4996719;28;20474;-79
2022/11/25 02:32:06;;;;;;;;;;;;;;;12.99;39.65;98314.13;5013690;28;20401;-79
2022/11/25 02:34:31;;;;;;;;;;;;;;;12.98;39.62;98322.94;5014439;28;20011;-78
2022/11/25 02:36:58;;;;;;;;;;;;;;;12.96;39.58;98320.44;5013322;28;19917;-79
2022/11/25 02:39:23;;;;;;;;;;;;;;;12.97;39.45;98319.50;4996169;28;19922;-80
2022/11/25 02:41:52;;;;;;;;;;;;;;;12.96;39.37;98325.69;4996058;28;19970;-79
2022/11/25 02:44:18;;;;;;;;;;;;;;;12.96;39.45;98330.94;5012814;28;19918;-79
2022/11/25 02:46:43;;;;;;;;;;;;;;;12.96;39.41;98335.34;4996614;28;19924;-79
2022/11/25 02:49:08;;;;;;;;;;;;;;;12.95;39.41;98329.31;4996860;28;20305;-78
2022/11/25 02:51:34;;;;;;;;;;;;;;;12.96;39.13;98341.41;5012644;28;20347;-79
2022/11/25 02:53:59;;;;;;;;;;;;;;;12.95;39.27;98347.63;5008172;28;19926;-79
2022/11/25 02:56:26;;;;;;;;;;;;;;;12.95;39.13;98344.16;4960920;28;19925;-78
2022/11/25 02:58:51;;;;;;;;;;;;;;;12.96;39.32;98353.69;4961013;28;19925;-79
2022/11/25 03:01:16;;;;;;;;;;;;;;;12.97;39.24;98352.75;4994727;28;19918;-78
2022/11/25 03:03:42;;;;;;;;;;;;;;;12.99;39.29;98343.75;4994084;28;19918;-79
2022/11/25 03:06:07;;;;;;;;;;;;;;;12.98;38.99;98357.84;4994283;28;20007;-78
2022/11/25 03:08:32;;;;;;;;;;;;;;;12.97;39.26;98358.78;4994019;28;20414;-79
2022/11/25 03:11:01;;;;;;;;;;;;;;;12.98;38.99;98355.22;4975938;28;20389;-80
2022/11/25 03:13:26;;;;;;;;;;;;;;;12.97;39.21;98355.34;4960296;28;19941;-78
2022/11/25 03:15:52;;;;;;;;;;;;;;;12.99;39.17;98350.78;4960378;28;20365;-78
2022/11/25 03:18:17;;;;;;;;;;;;;;;12.98;39.06;98349.97;4994314;28;19930;-78
2022/11/25 03:20:43;;;;;;;;;;;;;;;12.99;38.99;98350.78;4993873;28;19981;-78
2022/11/25 03:23:08;;;;;;;;;;;;;;;12.99;39.20;98350.78;4976542;28;20026;-79
2022/11/25 03:25:34;;;;;;;;;;;;;;;13.01;39.15;98356.72;4976358;28;19922;-78
2022/11/25 03:27:59;;;;;;;;;;;;;;;13.00;39.17;98357.69;4976988;28;19918;-78
2022/11/25 03:30:24;;;;;;;;;;;;;;;12.98;38.87;98342.13;4960252;28;20356;-79
2022/11/25 03:32:50;;;;;;;;;;;;;;;12.96;39.01;98341.41;4993943;28;20393;-78
2022/11/25 03:35:15;;;;;;;;;;;;;;;12.96;39.06;98367.59;4976189;28;20017;-79
2022/11/25 03:37:40;;;;;;;;;;;;;;;12.94;38.59;98363.50;4993881;28;20270;-78
2022/11/25 03:40:06;;;;;;;;;;;;;;;12.92;38.58;98374.13;4959853;28;19925;-78
2022/11/25 03:42:31;;;;;;;;;;;;;;;12.92;38.49;98357.56;4976513;28;20357;-78
2022/11/25 03:44:57;;;;;;;;;;;;;;;12.90;38.65;98367.34;4960211;28;20016;-77
2022/11/25 03:47:22;;;;;;;;;;;;;;;12.90;38.66;98370.78;4960233;28;19917;-77
2022/11/25 03:49:47;;;;;;;;;;;;;;;12.91;38.38;98374.25;4961086;28;19918;-80
2022/11/25 03:52:13;;;;;;;;;;;;;;;12.91;38.49;98369.84;5011367;28;19924;-77
2022/11/25 03:54:38;;;;;;;;;;;;;;;12.91;38.26;98371.63;4995088;28;20308;-78
2022/11/25 03:57:03;;;;;;;;;;;;;;;12.90;38.19;98359.50;5013999;28;20015;-78
2022/11/25 03:59:29;;;;;;;;;;;;;;;12.91;38.46;98369.03;5011782;28;20365;-78
2022/11/25 04:01:54;;;;;;;;;;;;;;;12.92;38.36;98378.50;4995601;28;20384;-78
2022/11/25 04:04:19;;;;;;;;;;;;;;;12.91;38.34;98359.34;5012882;28;20371;-78
2022/11/25 04:06:44;;;;;;;;;;;;;;;12.91;38.40;98375.06;4995101;28;19924;-77
2022/11/25 04:09:13;;;;;;;;;;;;;;;12.92;37.99;98365.41;5011858;28;20270;-78
2022/11/25 04:14:22;;;;;;;;;;;;;;;12.90;37.91;98370.78;5011899;28;19975;-78
2022/11/25 04:16:47;;;;;;;;;;;;;;;12.89;37.88;98371.78;5011592;28;19922;-78
2022/11/25 04:19:13;;;;;;;;;;;;;;;12.89;38.01;98379.63;5011641;28;19917;-77
2022/11/25 04:21:38;;;;;;;;;;;;;;;12.91;38.23;98382.13;5011317;28;19958;-78
2022/11/25 04:24:04;;;;;;;;;;;;;;;12.91;38.23;98382.13;5012444;28;20370;-77
2022/11/25 04:26:29;;;;;;;;;;;;;;;12.91;38.25;98382.94;5011296;28;19927;-79
2022/11/25 04:28:54;;;;;;;;;;;;;;;12.89;38.12;98387.50;5012874;28;19918;-75
2022/11/25 04:31:20;;;;;;;;;;;;;;;12.89;38.24;98378.78;5011391;28;19921;-76
2022/11/25 04:33:45;;;;;;;;;;;;;;;12.89;38.04;98392.72;5012166;28;19918;-80
2022/11/25 04:36:10;;;;;;;;;;;;;;;12.88;37.93;98392.88;5011468;28;19994;-78
2022/11/25 04:38:35;;;;;;;;;;;;;;;12.89;37.85;98397.97;4995798;28;20329;-83
2022/11/25 04:41:01;;;;;;;;;;;;;;;12.89;38.15;98397.13;5018465;28;20371;-89
2022/11/25 04:43:26;;;;;;;;;;;;;;;12.88;38.11;98400.72;5034754;28;20396;-88
2022/11/25 04:45:51;;;;;;;;;;;;;;;12.88;38.02;98393.69;5033454;28;20384;-89
2022/11/25 04:48:17;;;;;;;;;;;;;;;12.97;53.16;98402.53;5032094;28;19949;-76
2022/11/25 04:50:42;;;;;;;;;;;;;;;13.52;64.16;98412.31;5031400;28;20384;-88
2022/11/25 04:53:07;;;;;;;;;;;;;;;13.65;60.30;98404.97;5031311;28;19917;-88
2022/11/25 04:55:33;;;;;;;;;;;;;;;13.61;56.03;98408.00;5014782;28;19940;-83
2022/11/25 04:57:58;;;;;;;;;;;;;;;13.55;54.23;98410.25;5023170;28;19922;-85
2022/11/25 05:00:23;;;;;;;;;;;;;;;13.49;52.62;98405.56;4985098;28;19976;-80
2022/11/25 05:02:49;;;;;;;;;;;;;;;13.44;51.22;98413.06;4970349;28;19918;-85
2022/11/25 05:05:14;;;;;;;;;;;;;;;13.39;49.30;98410.00;5005502;28;19917;-84
2022/11/25 05:07:39;;;;;;;;;;;;;;;13.33;47.99;98419.28;4973289;28;19925;-83
2022/11/25 05:10:05;;;;;;;;;;;;;;;13.28;46.85;98421.47;4970758;28;19925;-85
2022/11/25 05:12:31;;;;;;;;;;;;;;;13.31;50.92;98428.22;5008844;28;19947;-83
2022/11/25 05:14:56;;;;;;;;;;;;;;;13.34;48.86;98438.47;4973419;28;19929;-76
2022/11/25 05:17:22;;;;;;;;;;;;;;;13.32;48.22;98443.00;4971629;28;19925;-82
2022/11/25 05:19:48;;;;;;;;;;;;;;;13.28;47.25;98445.06;4986980;28;19924;-77
2022/11/25 05:22:15;;;;;;;;;;;;;;;13.28;51.18;98445.06;5003811;28;19917;-79
2022/11/25 05:24:40;;;;;;;;;;;;;;;13.30;49.25;98458.03;4986673;28;19940;-78
2022/11/25 05:27:06;;;;;;;;;;;;;;;13.29;48.12;98462.44;4986509;28;19984;-78
2022/11/25 05:29:31;;;;;;;;;;;;;;;13.28;47.51;98468.63;4986449;28;20438;-78
2022/11/25 05:31:56;;;;;;;;;;;;;;;13.26;45.88;98473.22;5005891;28;19933;-77
2022/11/25 05:34:21;;;;;;;;;;;;;;;13.29;44.57;98470.31;5003767;28;20000;-80
2022/11/25 05:36:47;;;;;;;;;;;;;;;13.32;43.94;98488.38;5003929;28;19928;-78
2022/11/25 05:39:12;;;;;;;;;;;;;;;13.31;43.32;98480.66;4987359;28;19940;-79
2022/11/25 05:41:37;;;;;;;;;;;;;;;13.32;42.60;98480.50;5002330;28;19918;-81
2022/11/25 05:44:04;;;;;;;;;;;;;;;13.33;42.43;98481.34;4987883;28;19918;-82
2022/11/25 05:46:29;;;;;;;;;;;;;;;13.31;41.26;98491.97;4971362;28;19918;-84
2022/11/25 05:48:54;;;;;;;;;;;;;;;13.31;41.44;98491.97;5002649;28;20326;-80
2022/11/25 05:51:20;;;;;;;;;;;;;;;13.30;41.21;98492.09;5005082;28;19925;-79
2022/11/25 05:53:45;;;;;;;;;;;;;;;13.30;40.80;98505.19;4984436;28;19917;-81
2022/11/25 05:56:11;;;;;;;;;;;;;;;13.30;40.53;98506.06;5001127;28;19926;-81
2022/11/25 05:58:36;;;;;;;;;;;;;;;13.30;39.97;98510.44;4969668;28;19925;-81
2022/11/25 06:01:05;;;;;;;;;;;;;;;13.29;40.24;98509.63;5003770;28;19918;-80
2022/11/25 06:03:30;;;;;;;;;;;;;;;13.28;39.81;98515.00;4985362;28;20308;-82
2022/11/25 06:05:56;;;;;;;;;;;;;;;13.28;39.66;98518.44;4983851;28;19917;-81
2022/11/25 06:08:21;;;;;;;;;;;;;;;13.29;39.46;98519.28;5001898;28;19936;-81
2022/11/25 06:10:46;;;;;;;;;;;;;;;13.28;39.19;98523.69;4986079;28;19930;-79
2022/11/25 06:13:12;;;;;;;;;;;;;;;13.28;38.71;98517.63;4986271;28;20262;-82
2022/11/25 06:15:41;;;;;;;;;;;;;;;13.28;38.52;98528.13;4970486;28;20393;-78
2022/11/25 06:18:06;;;;;;;;;;;;;;;13.29;38.89;98529.78;5003709;28;19924;-79
2022/11/25 06:20:32;;;;;;;;;;;;;;;13.29;38.78;98533.22;5004033;28;19921;-80
2022/11/25 06:22:57;;;;;;;;;;;;;;;13.29;38.97;98538.47;4985746;28;19926;-79
2022/11/25 06:25:23;;;;;;;;;;;;;;;13.30;38.55;98541.91;4971142;28;19997;-80
2022/11/25 06:27:48;;;;;;;;;;;;;;;13.31;38.49;98540.94;4975818;28;19964;-80
2022/11/25 06:30:14;;;;;;;;;;;;;;;13.31;38.55;98540.94;5005375;28;20449;-81
2022/11/25 06:32:39;;;;;;;;;;;;;;;13.33;38.31;98546.91;4987916;28;19918;-80
2022/11/25 06:35:05;;;;;;;;;;;;;;;13.34;38.34;98541.50;4989731;28;20376;-81
2022/11/25 06:37:31;;;;;;;;;;;;;;;13.35;37.92;98548.44;4985954;28;19921;-80
2022/11/25 06:39:56;;;;;;;;;;;;;;;13.35;37.89;98556.28;5001654;28;20382;-80
2022/11/25 06:42:21;;;;;;;;;;;;;;;13.38;38.05;98568.31;4968692;28;19921;-81
2022/11/25 06:44:46;;;;;;;;;;;;;;;13.39;37.81;98573.41;4985065;28;19925;-80
2022/11/25 06:47:12;;;;;;;;;;;;;;;13.41;37.69;98570.66;4985577;28;19924;-80
2022/11/25 06:49:37;;;;;;;;;;;;;;;13.43;37.69;98566.09;4984350;28;20393;-80
2022/11/25 06:52:02;;;;;;;;;;;;;;;13.48;37.72;98576.97;4986542;28;19921;-81
2022/11/25 06:54:28;;;;;;;;;;;;;;;13.50;37.56;98580.28;4969815;28;19971;-80
2022/11/25 06:56:53;;;;;;;;;;;;;;;13.55;37.79;98582.47;5004125;28;19918;-78
2022/11/25 06:59:19;;;;;;;;;;;;;;;13.60;37.44;98579.44;4987883;28;19940;-80
2022/11/25 07:01:44;;;;;;;;;;;;;;;13.63;37.50;98581.78;4969111;28;19976;-81
2022/11/25 07:04:10;;;;;;;;;;;;;;;13.67;37.45;98585.81;4993227;28;19922;-79
2022/11/25 07:06:35;;;;;;;;;;;;;;;13.71;37.21;98588.00;4970261;28;20440;-80
2022/11/25 07:09:00;;;;;;;;;;;;;;;13.77;37.38;98591.03;4987609;28;19924;-80
2022/11/25 07:11:32;;;;;;;;;;;;;;;13.81;37.28;98587.97;4985279;28;19926;-80
2022/11/25 07:13:58;;;;;;;;;;;;;;;13.87;37.12;98576.91;4986703;28;19984;-81
2022/11/25 07:16:24;;;;;;;;;;;;;;;13.96;36.99;98590.97;4983994;28;19964;-79
2022/11/25 07:18:49;;;;;;;;;;;;;;;14.04;36.79;98593.72;4985097;28;20417;-79
2022/11/25 07:21:16;;;;;;;;;;;;;;;14.14;36.74;98604.19;5003431;28;19914;-79
2022/11/25 07:23:41;;;;;;;;;;;;;;;14.26;36.61;98602.22;5000746;28;19924;-80
2022/11/25 07:26:10;;;;;;;;;;;;;;;14.37;36.47;98609.09;4984841;28;20327;-80
2022/11/25 07:28:37;;;;;;;;;;;;;;;14.48;36.50;98601.88;4983529;28;19918;-79
2022/11/25 07:31:03;;;;;;;;;;;;;;;14.65;36.19;98604.69;4969919;28;19925;-85
2022/11/25 07:33:28;;;;;;;;;;;;;;;14.78;36.02;98612.25;4968657;28;19948;-80
2022/11/25 07:35:53;;;;;;;;;;;;;;;14.93;35.92;98615.22;4984712;28;19991;-80
2022/11/25 07:38:19;;;;;;;;;;;;;;;15.06;35.53;98620.91;4969894;28;20454;-81
2022/11/25 07:40:44;;;;;;;;;;;;;;;15.17;35.51;98625.97;4984553;28;19917;-81
2022/11/25 07:43:09;;;;;;;;;;;;;;;15.30;35.56;98630.03;5001789;28;19922;-81
2022/11/25 07:45:35;;;;;;;;;;;;;;;15.41;35.35;98632.44;4969190;28;20462;-81
2022/11/25 07:48:01;;;;;;;;;;;;;;;15.54;35.03;98632.06;4983887;28;19922;-81
2022/11/25 07:50:27;;;;;;;;;;;;;;;15.65;35.04;98638.88;4983178;28;19917;-80
2022/11/25 07:52:52;;;;;;;;;;;;;;;15.77;34.78;98644.78;4986119;28;20045;-81
2022/11/25 07:55:18;;;;;;;;;;;;;;;15.87;34.59;98656.84;5001672;28;19918;-82
2022/11/25 07:57:43;;;;;;;;;;;;;;;15.98;34.45;98657.59;4985761;28;19925;-80
2022/11/25 08:00:08;;;;;;;;;;;;;;;16.12;34.13;98645.69;4984043;28;19918;-79
2022/11/25 08:02:34;;;;;;;;;;;;;;;16.31;33.97;98652.56;5000311;28;19917;-79
2022/11/25 08:04:59;;;;;;;;;;;;;;;16.52;33.93;98654.81;4966980;28;19928;-80
2022/11/25 08:07:24;;;;;;;;;;;;;;;16.89;33.15;98651.88;4986564;28;19976;-81
2022/11/25 08:09:50;;;;;;;;;;;;;;;17.22;32.86;98653.75;4985588;28;19921;-80
2022/11/25 08:12:15;;;;;;;;;;;;;;;17.89;32.17;98667.72;4982564;28;20008;-81
2022/11/25 08:14:41;;;;;;;;;;;;;;;18.07;32.11;98662.25;4999936;28;19917;-81
2022/11/25 08:17:06;;;;;;;;;;;;;;;18.27;31.36;98668.00;5003910;28;20308;-79
2022/11/25 08:19:32;;;;;;;;;;;;;;;18.45;31.01;98661.66;4983947;28;19921;-80
2022/11/25 08:21:57;;;;;;;;;;;;;;;18.59;30.51;98668.91;4986790;28;19918;-81
2022/11/25 08:24:23;;;;;;;;;;;;;;;18.73;30.05;98663.91;4998781;28;20008;-81
2022/11/25 08:26:48;;;;;;;;;;;;;;;18.91;30.12;98671.63;4983136;28;20008;-78
2022/11/25 08:29:14;;;;;;;;;;;;;;;19.00;29.68;98685.66;4982781;28;20351;-80
2022/11/25 08:31:39;;;;;;;;;;;;;;;19.10;29.23;98679.16;4969042;28;19936;-82
2022/11/25 08:34:05;;;;;;;;;;;;;;;19.25;28.90;98673.13;4983829;28;19925;-79
2022/11/25 08:36:30;;;;;;;;;;;;;;;19.38;28.86;98676.00;4982979;28;19918;-80
2022/11/25 08:38:56;;;;;;;;;;;;;;;19.48;28.51;98676.63;4983052;28;19918;-81
2022/11/25 08:41:29;;;;;;;;;;;;;;;19.77;28.10;98669.81;4985974;28;19918;-79
2022/11/25 08:43:55;;;;;;;;;;;;;;;20.31;27.39;98682.06;4983776;28;19988;-81
2022/11/25 08:46:21;;;;;;;;;;;;;;;21.23;26.36;98683.50;4968898;28;20352;-80
2022/11/25 08:48:46;;;;;;;;;;;;;;;21.53;25.96;98677.31;4967188;28;19924;-80
2022/11/25 08:51:13;;;;;;;;;;;;;;;22.53;24.74;98681.63;4984317;28;19987;-79
2022/11/25 08:53:38;;;;;;;;;;;;;;;23.20;23.76;98691.75;4968662;28;19918;-79
2022/11/25 08:56:04;;;;;;;;;;;;;;;23.92;23.38;98674.28;4982886;28;19925;-78
2022/11/25 08:58:29;;;;;;;;;;;;;;;24.61;22.60;98692.72;4983605;28;19922;-80
2022/11/25 09:00:55;;;;;;;;;;;;;;;25.30;20.98;98680.56;5002491;28;20388;-80
2022/11/25 09:03:20;;;;;;;;;;;;;;;25.99;20.44;98678.06;4984993;28;19918;-78
2022/11/25 09:05:46;;;;;;;;;;;;;;;26.78;19.84;98682.88;4967176;28;20370;-79
2022/11/25 09:08:11;;;;;;;;;;;;;;;27.53;18.81;98669.16;4985753;28;20036;-79
2022/11/25 09:10:38;;;;;;;;;;;;;;;28.10;18.18;98662.47;5001127;28;19931;-78
2022/11/25 09:13:03;;;;;;;;;;;;;;;28.37;17.84;98664.69;4985362;28;20398;-80
2022/11/25 09:15:28;;;;;;;;;;;;;;;28.58;17.79;98666.81;5001733;28;19957;-80
2022/11/25 09:17:58;;;;;;;;;;;;;;;28.72;17.48;98678.09;4984794;28;19917;-80
2022/11/25 09:20:23;;;;;;;;;;;;;;;28.86;17.23;98682.16;4969172;28;20380;-81
2022/11/25 09:22:49;;;;;;;;;;;;;;;28.25;17.47;98676.25;5000526;28;19917;-80
2022/11/25 09:25:14;;;;;;;;;;;;;;;27.69;17.72;98675.72;4965791;28;19975;-78
2022/11/25 09:27:40;;;;;;;;;;;;;;;29.02;16.68;98691.34;4984967;28;19922;-80
2022/11/25 09:30:06;;;;;;;;;;;;;;;30.45;15.30;98676.03;4982857;28;19961;-78
2022/11/25 09:32:32;;;;;;;;;;;;;;;31.95;14.33;98672.28;5000555;28;19959;-78
2022/11/25 09:34:57;;;;;;;;;;;;;;;33.22;13.25;98667.81;4965802;28;20036;-81
2022/11/25 09:37:22;;;;;;;;;;;;;;;34.56;12.21;98663.16;4984692;28;19928;-79
2022/11/25 09:39:49;;;;;;;;;;;;;;;34.97;11.43;98669.25;5000544;28;19918;-80
2022/11/25 09:48:04;;;;;;;;;;;;;;;36.44;10.51;98665.97;4961036;28;19918;-79
2022/11/25 09:50:48;;;;;;;;;;;;;;;34.89;11.48;98661.69;4962516;28;19924;-80
2022/11/25 09:53:31;;;;;;;;;;;;;;;34.95;11.29;98671.44;4961990;28;20560;-80
2022/11/25 09:55:58;;;;;;;;;;;;;;;34.51;11.73;98677.56;4962537;28;19922;-79
2022/11/25 09:58:25;;;;;;;;;;;;;;;33.11;12.68;98686.69;4964371;28;19922;-80
2022/11/25 10:00:50;;;;;;;;;;;;;;;32.79;13.00;98681.44;4961481;28;19923;-78
2022/11/25 10:03:32;;;;;;;;;;;;;;;32.53;13.39;98672.38;4962422;28;19918;-80
2022/11/25 10:05:57;;;;;;;;;;;;;;;32.24;13.61;98683.56;4963173;28;19926;-79
2022/11/25 10:08:25;;;;;;;;;;;;;;;31.96;13.68;98674.72;4967590;28;19926;-81
2022/11/25 10:11:22;;;;;;;;;;;;;;;31.60;13.82;98674.41;4962802;28;19926;-80
2022/11/25 10:14:01;;;;;;;;;;;;;;;31.29;14.26;98662.50;4915088;29;19958;-82
2022/11/25 10:16:35;;;;;;;;;;;;;;;30.99;14.89;98666.50;4912958;29;19931;-82
2022/11/25 10:19:02;;;;;;;;;;;;;;;30.79;14.80;98669.72;4915257;29;19981;-82
2022/11/25 10:21:27;;;;;;;;;;;;;;;30.54;15.44;98667.53;4908244;29;19931;-79
2022/11/25 10:23:52;;;;;;;;;;;;;;;30.30;14.89;98662.34;4937457;29;20003;-79
2022/11/25 10:26:19;;;;;;;;;;;;;;;30.03;17.98;98660.34;4937787;29;19983;-79
2022/11/25 10:28:48;;;;;;;;;;;;;;;29.74;16.54;98667.63;4935331;29;19958;-78
2022/11/25 10:31:19;;;;;;;;;;;;;;;29.48;16.67;98677.16;4942349;29;20054;-77
2022/11/25 10:33:49;;;;;;;;;;;;;;;29.20;19.54;98673.44;4932203;29;20370;-76
2022/11/25 10:36:18;;;;;;;;;;;;;;;28.92;18.61;98668.81;4937397;29;19982;-78
2022/11/25 10:38:54;;;;;;;;;;;;;;;28.76;18.80;98663.13;4952733;29;19922;-78
2022/11/25 10:41:20;;;;;;;;;;;;;;;28.58;18.40;98660.63;4936899;29;19919;-77
2022/11/25 10:43:45;;;;;;;;;;;;;;;28.48;18.30;98653.13;4934576;29;19926;-78
2022/11/25 10:46:11;;;;;;;;;;;;;;;28.31;18.31;98664.59;4936445;29;20017;-78
2022/11/25 10:48:55;;;;;;;;;;;;;;;28.05;18.24;98662.38;4962954;28;19940;-76
2022/11/25 10:51:38;;;;;;;;;;;;;;;27.77;18.19;98656.59;5003074;28;20028;-77
2022/11/25 10:54:07;;;;;;;;;;;;;;;27.43;24.74;98658.97;5015905;28;19921;-78
2022/11/25 10:56:41;;;;;;;;;;;;;;;27.32;22.30;98659.75;4986513;28;19925;-78
2022/11/25 10:59:26;;;;;;;;;;;;;;;27.17;21.68;98656.66;4987238;28;20361;-77
2022/11/25 11:01:52;;;;;;;;;;;;;;;27.00;21.07;98649.22;4986457;28;19925;-79
2022/11/25 11:04:18;;;;;;;;;;;;;;;26.82;20.63;98652.75;4984699;28;19917;-79
2022/11/25 11:06:47;;;;;;;;;;;;;;;26.67;20.37;98652.31;4986573;28;19928;-79
2022/11/25 11:09:29;;;;;;;;;;;;;;;26.57;20.67;98649.28;4985478;28;19918;-78
2022/11/25 11:11:58;;;;;;;;;;;;;;;26.38;20.55;98653.81;4986031;28;19926;-79
2022/11/25 11:14:28;;;;;;;;;;;;;;;26.21;20.29;98656.28;4968992;28;19974;-79
2022/11/25 11:16:54;;;;;;;;;;;;;;;26.06;20.58;98654.78;4969935;28;20041;-79
2022/11/25 11:19:30;;;;;;;;;;;;;;;25.94;20.37;98661.84;4984200;28;20383;-77
2022/11/25 11:21:55;;;;;;;;;;;;;;;25.56;20.68;98663.53;4969588;28;19918;-80
2022/11/25 11:24:36;;;;;;;;;;;;;;;25.32;20.63;98669.66;4983436;28;19925;-79
2022/11/25 11:27:03;;;;;;;;;;;;;;;25.09;20.79;98673.66;4984204;28;19976;-78
2022/11/25 11:29:28;;;;;;;;;;;;;;;24.90;20.80;98672.69;4985941;28;19961;-79
2022/11/25 11:31:57;;;;;;;;;;;;;;;24.70;21.23;98667.44;4970199;28;19956;-80
2022/11/25 11:34:32;;;;;;;;;;;;;;;24.59;21.24;98668.09;4984271;28;20368;-77
2022/11/25 11:37:16;;;;;;;;;;;;;;;24.46;21.32;98669.72;4983687;28;20396;-78
2022/11/25 11:40:00;;;;;;;;;;;;;;;24.28;21.48;98666.91;5002491;28;19918;-79
2022/11/25 11:42:43;;;;;;;;;;;;;;;24.01;21.77;98670.41;5003180;28;20001;-78
2022/11/25 11:45:15;;;;;;;;;;;;;;;23.88;21.77;98664.25;4984253;28;19918;-76
2022/11/25 11:47:56;;;;;;;;;;;;;;;23.69;22.16;98677.34;4983552;28;20320;-78
2022/11/25 11:50:27;;;;;;;;;;;;;;;23.48;21.71;98665.84;4983166;28;19926;-80
2022/11/25 11:53:16;;;;;;;;;;;;;;;23.30;22.17;98670.91;4984394;28;19917;-78
2022/11/25 11:55:41;;;;;;;;;;;;;;;23.15;21.91;98667.59;4924055;29;19934;-78
2022/11/25 11:58:18;;;;;;;;;;;;;;;23.00;22.09;98671.19;4932347;29;20370;-80
2022/11/25 12:00:47;;;;;;;;;;;;;;;22.82;22.29;98677.06;4916300;29;19923;-79
2022/11/25 12:03:15;;;;;;;;;;;;;;;22.60;22.19;98676.34;4916366;29;20426;-77
2022/11/25 12:05:41;;;;;;;;;;;;;;;22.44;22.15;98673.97;4932047;29;20034;-80
2022/11/25 12:08:12;;;;;;;;;;;;;;;22.32;22.24;98668.38;4916252;29;20002;-78
2022/11/25 12:10:40;;;;;;;;;;;;;;;22.11;22.48;98682.53;4931852;29;19946;-77
2022/11/25 12:13:14;;;;;;;;;;;;;;;21.86;22.69;98683.75;4907034;29;19929;-79
2022/11/25 12:15:39;;;;;;;;;;;;;;;21.71;22.60;98679.53;4916133;29;19918;-77
2022/11/25 12:18:23;;;;;;;;;;;;;;;21.45;23.08;98684.34;4915877;29;19977;-79
2022/11/25 12:21:03;;;;;;;;;;;;;;;21.24;23.05;98684.34;4931784;29;19926;-78
2022/11/25 12:23:37;;;;;;;;;;;;;;;21.00;23.35;98693.44;4915948;29;19926;-78
2022/11/25 12:26:04;;;;;;;;;;;;;;;20.85;23.36;98688.97;4916213;29;19939;-77
2022/11/25 12:28:35;;;;;;;;;;;;;;;20.70;23.44;98701.41;4931969;29;19919;-79
2022/11/25 12:31:10;;;;;;;;;;;;;;;20.56;23.49;98698.56;4915806;29;19929;-78
2022/11/25 12:33:39;;;;;;;;;;;;;;;20.44;23.93;98697.34;4978826;28;20142;-78
2022/11/25 12:36:06;;;;;;;;;;;;;;;20.31;23.95;98705.13;4967148;28;20016;-81
2022/11/25 12:38:50;;;;;;;;;;;;;;;20.17;24.09;98702.25;4984285;28;19918;-80
2022/11/25 12:41:18;;;;;;;;;;;;;;;20.06;24.20;98705.31;5000315;28;19917;-80
2022/11/25 12:43:54;;;;;;;;;;;;;;;20.01;24.40;98702.41;4982920;28;19953;-82
2022/11/25 12:46:22;;;;;;;;;;;;;;;19.94;24.34;98704.94;4985869;28;19918;-79
2022/11/25 12:48:48;;;;;;;;;;;;;;;19.90;24.63;98713.41;5001054;28;20020;-80
2022/11/25 12:51:19;;;;;;;;;;;;;;;19.82;24.58;98703.72;4984145;28;20064;-80
2022/11/25 12:54:10;;;;;;;;;;;;;;;19.75;24.69;98715.97;5000771;28;19928;-81
2022/11/25 12:56:39;;;;;;;;;;;;;;;19.65;24.75;98708.25;4970301;28;19963;-79
2022/11/25 12:59:19;;;;;;;;;;;;;;;19.59;24.76;98714.25;4987872;28;19921;-81
2022/11/25 13:01:54;;;;;;;;;;;;;;;19.51;24.97;98723.91;4985367;28;19922;-81
2022/11/25 13:04:19;;;;;;;;;;;;;;;19.45;24.97;98721.97;4985294;28;19972;-80